Time;durP1;ratioP1;P1;durP2;ratioP2;P2;SDS_P1;SDS_P2;PMS_P1;PMS_P2;Temp;Humidity;BMP_temperature;BMP_pressure;BME280_temperature;BME280_humidity;BME280_pressure;Samples;Min_cycle;Max_cycle;Signal;HPM_P1;HPM_P2
2023/12/26 00:00:01;;;;;;;4.50;1.53;;;;;;;;;;5034198;28;20449;-68
2023/12/26 00:02:28;;;;;;;4.45;1.60;;;;;;;;;;5035302;28;20258;-68
2023/12/26 00:04:53;;;;;;;6.35;1.70;;;;;;;;;;5032971;28;20028;-68
2023/12/26 00:07:18;;;;;;;8.70;1.33;;;;;;;;;;5034136;28;20025;-68
2023/12/26 00:09:43;;;;;;;7.53;1.40;;;;;;;;;;5033745;28;20065;-68
2023/12/26 00:12:09;;;;;;;4.20;1.10;;;;;;;;;;5034224;28;20254;-68
2023/12/26 00:14:34;;;;;;;8.73;1.53;;;;;;;;;;5032401;28;20301;-68
2023/12/26 00:16:59;;;;;;;5.18;1.42;;;;;;;;;;5031002;28;20336;-68
2023/12/26 00:19:24;;;;;;;3.77;1.90;;;;;;;;;;5031789;28;20100;-68
2023/12/26 00:21:50;;;;;;;4.22;1.30;;;;;;;;;;5032026;28;20317;-68
2023/12/26 00:24:15;;;;;;;4.38;1.92;;;;;;;;;;5031596;28;20026;-68
2023/12/26 00:26:40;;;;;;;3.00;1.20;;;;;;;;;;5031445;28;20465;-68
2023/12/26 00:29:05;;;;;;;4.43;1.50;;;;;;;;;;5031544;28;20268;-68
2023/12/26 00:31:31;;;;;;;6.80;1.67;;;;;;;;;;5033833;28;20334;-69
2023/12/26 00:33:57;;;;;;;2.95;1.42;;;;;;;;;;5031458;28;20029;-68
2023/12/26 00:36:22;;;;;;;6.35;1.58;;;;;;;;;;5034009;28;20025;-68
2023/12/26 00:38:47;;;;;;;5.93;1.83;;;;;;;;;;5030562;28;20032;-68
2023/12/26 00:41:16;;;;;;;3.03;1.52;;;;;;;;;;5033162;28;20018;-68
2023/12/26 00:43:41;;;;;;;2.78;1.75;;;;;;;;;;5032682;28;20040;-68
2023/12/26 00:46:07;;;;;;;4.22;1.70;;;;;;;;;;5033460;28;20025;-68
2023/12/26 00:48:32;;;;;;;3.13;1.33;;;;;;;;;;5032353;28;20024;-68
2023/12/26 00:50:58;;;;;;;5.65;2.13;;;;;;;;;;5033403;28;20021;-68
2023/12/26 00:53:24;;;;;;;3.60;2.00;;;;;;;;;;5033374;28;20092;-68
2023/12/26 00:55:49;;;;;;;3.50;2.13;;;;;;;;;;5032587;28;20278;-68
2023/12/26 00:58:14;;;;;;;4.90;1.70;;;;;;;;;;5033235;28;20432;-68
2023/12/26 01:00:40;;;;;;;7.07;2.10;;;;;;;;;;5031980;28;20340;-67
2023/12/26 01:03:05;;;;;;;8.23;2.50;;;;;;;;;;5033256;28;20266;-69
2023/12/26 01:05:30;;;;;;;12.40;2.38;;;;;;;;;;5032413;28;20643;-68
2023/12/26 01:07:55;;;;;;;5.40;1.77;;;;;;;;;;5032547;28;20049;-68
2023/12/26 01:10:20;;;;;;;7.05;2.20;;;;;;;;;;5033255;28;20306;-68
2023/12/26 01:12:46;;;;;;;8.63;2.57;;;;;;;;;;5025495;28;20033;-69
2023/12/26 01:15:11;;;;;;;4.57;2.20;;;;;;;;;;5032121;28;20345;-68
2023/12/26 01:17:36;;;;;;;3.42;1.63;;;;;;;;;;5033012;28;20025;-68
2023/12/26 01:20:02;;;;;;;8.90;2.20;;;;;;;;;;5033016;28;20068;-68
2023/12/26 01:22:28;;;;;;;10.02;2.40;;;;;;;;;;5032509;28;20263;-68
2023/12/26 01:24:53;;;;;;;9.05;1.98;;;;;;;;;;5032768;28;20106;-68
2023/12/26 01:27:18;;;;;;;8.77;1.87;;;;;;;;;;5032004;28;20020;-68
2023/12/26 01:29:43;;;;;;;5.75;1.80;;;;;;;;;;5028769;28;20270;-69
2023/12/26 01:32:09;;;;;;;7.30;1.53;;;;;;;;;;5032853;28;20025;-69
2023/12/26 01:34:34;;;;;;;8.43;1.43;;;;;;;;;;5031724;28;20271;-68
2023/12/26 01:36:59;;;;;;;4.37;1.63;;;;;;;;;;5032523;28;20271;-68
2023/12/26 01:39:26;;;;;;;8.80;1.57;;;;;;;;;;5032329;28;20264;-68
2023/12/26 01:41:51;;;;;;;6.35;1.80;;;;;;;;;;5030161;28;20282;-68
2023/12/26 01:44:16;;;;;;;7.37;1.63;;;;;;;;;;5031784;28;20029;-68
2023/12/26 01:46:42;;;;;;;3.90;1.60;;;;;;;;;;5022303;28;20282;-69
2023/12/26 01:49:07;;;;;;;7.70;1.70;;;;;;;;;;5031385;28;20271;-68
2023/12/26 01:51:33;;;;;;;10.65;1.73;;;;;;;;;;5029974;28;20057;-68
2023/12/26 01:53:59;;;;;;;8.18;2.08;;;;;;;;;;5028968;28;20024;-68
2023/12/26 01:56:26;;;;;;;8.38;1.95;;;;;;;;;;5032340;28;20029;-68
2023/12/26 01:58:51;;;;;;;6.15;1.80;;;;;;;;;;5032031;28;20021;-69
2023/12/26 02:01:17;;;;;;;10.73;2.05;;;;;;;;;;5031748;28;20436;-68
2023/12/26 02:03:42;;;;;;;10.70;1.75;;;;;;;;;;5031836;28;20057;-69
2023/12/26 02:06:08;;;;;;;5.47;1.50;;;;;;;;;;5031731;28;20044;-68
2023/12/26 02:08:34;;;;;;;13.73;1.92;;;;;;;;;;5030471;28;20076;-69
2023/12/26 02:10:59;;;;;;;7.30;1.73;;;;;;;;;;5032021;28;20030;-69
2023/12/26 02:13:24;;;;;;;8.03;1.30;;;;;;;;;;5031091;28;20484;-68
2023/12/26 02:15:51;;;;;;;9.23;1.60;;;;;;;;;;5031814;28;20797;-68
2023/12/26 02:18:17;;;;;;;6.60;1.58;;;;;;;;;;5030798;28;20290;-68
2023/12/26 02:20:42;;;;;;;4.53;1.42;;;;;;;;;;5025863;28;20473;-69
2023/12/26 02:23:07;;;;;;;2.53;1.23;;;;;;;;;;5031777;28;20075;-68
2023/12/26 02:25:32;;;;;;;9.53;1.87;;;;;;;;;;5031383;28;20384;-69
2023/12/26 02:27:59;;;;;;;10.43;1.73;;;;;;;;;;5029272;28;20306;-68
2023/12/26 02:30:24;;;;;;;3.22;1.40;;;;;;;;;;5028388;28;20266;-68
2023/12/26 02:32:51;;;;;;;5.80;1.35;;;;;;;;;;5030884;28;20018;-69
2023/12/26 02:35:17;;;;;;;5.75;1.25;;;;;;;;;;5031541;28;20092;-69
2023/12/26 02:37:42;;;;;;;6.80;1.70;;;;;;;;;;5030393;28;20164;-68
2023/12/26 02:40:08;;;;;;;8.02;1.30;;;;;;;;;;5029669;28;20047;-68
2023/12/26 02:42:33;;;;;;;9.13;2.22;;;;;;;;;;5030215;28;20032;-68
2023/12/26 02:44:58;;;;;;;8.65;1.52;;;;;;;;;;5030073;28;20076;-69
2023/12/26 02:47:24;;;;;;;6.40;1.73;;;;;;;;;;5030949;28;20060;-69
2023/12/26 02:49:49;;;;;;;1.92;0.93;;;;;;;;;;5029840;28;20746;-68
2023/12/26 02:52:15;;;;;;;8.73;1.70;;;;;;;;;;5028342;28;20053;-68
2023/12/26 02:54:40;;;;;;;7.10;2.08;;;;;;;;;;5031149;28;20029;-68
2023/12/26 02:57:05;;;;;;;5.15;1.48;;;;;;;;;;5030010;28;20112;-68
2023/12/26 02:59:30;;;;;;;9.83;2.00;;;;;;;;;;5030703;28;20080;-68
2023/12/26 03:01:57;;;;;;;5.13;1.73;;;;;;;;;;5030155;28;20275;-68
2023/12/26 03:04:22;;;;;;;7.15;1.30;;;;;;;;;;5030441;28;20071;-68
2023/12/26 03:06:48;;;;;;;6.37;1.37;;;;;;;;;;5031277;28;20417;-68
2023/12/26 03:09:13;;;;;;;6.78;1.45;;;;;;;;;;5030372;28;20667;-68
2023/12/26 03:11:38;;;;;;;5.83;1.73;;;;;;;;;;5029912;28;20017;-68
2023/12/26 03:14:03;;;;;;;3.73;1.00;;;;;;;;;;5028764;28;20282;-68
2023/12/26 03:16:29;;;;;;;4.32;1.17;;;;;;;;;;5029486;28;20278;-68
2023/12/26 03:18:54;;;;;;;4.40;1.43;;;;;;;;;;5030389;28;20033;-68
2023/12/26 03:21:20;;;;;;;10.97;1.90;;;;;;;;;;5030747;28;20259;-68
2023/12/26 03:23:46;;;;;;;13.68;1.85;;;;;;;;;;5029935;28;20320;-68
2023/12/26 03:26:11;;;;;;;9.73;1.88;;;;;;;;;;5029278;28;20389;-68
2023/12/26 03:28:36;;;;;;;9.40;2.13;;;;;;;;;;5031800;28;20483;-68
2023/12/26 03:31:02;;;;;;;7.33;1.53;;;;;;;;;;5036187;28;20262;-68
2023/12/26 03:33:27;;;;;;;8.68;1.60;;;;;;;;;;5031080;28;20281;-68
2023/12/26 03:35:52;;;;;;;6.53;1.70;;;;;;;;;;5036954;28;20105;-68
2023/12/26 03:38:18;;;;;;;3.90;1.48;;;;;;;;;;5036194;28;20313;-68
2023/12/26 03:40:43;;;;;;;7.55;1.60;;;;;;;;;;5037001;28;20013;-68
2023/12/26 03:43:08;;;;;;;6.22;1.73;;;;;;;;;;5036337;28;20025;-68
2023/12/26 03:45:33;;;;;;;7.80;2.30;;;;;;;;;;5035553;28;20017;-69
2023/12/26 03:47:59;;;;;;;4.47;1.55;;;;;;;;;;5036638;28;20258;-68
2023/12/26 03:50:25;;;;;;;6.40;1.53;;;;;;;;;;5036322;28;20021;-68
2023/12/26 03:52:50;;;;;;;5.95;1.25;;;;;;;;;;5036862;28;20271;-68
2023/12/26 03:55:16;;;;;;;8.10;1.20;;;;;;;;;;5037178;28;20017;-69
2023/12/26 03:57:41;;;;;;;4.32;1.20;;;;;;;;;;5036470;28;20281;-68
2023/12/26 04:00:07;;;;;;;3.15;1.23;;;;;;;;;;5034843;28;20017;-68
2023/12/26 04:02:32;;;;;;;8.32;1.52;;;;;;;;;;5034940;28;20025;-68
2023/12/26 04:04:58;;;;;;;5.67;1.50;;;;;;;;;;5034171;28;20174;-68
2023/12/26 04:07:23;;;;;;;7.30;1.67;;;;;;;;;;5037010;28;20262;-69
2023/12/26 04:09:48;;;;;;;11.20;1.73;;;;;;;;;;5036002;28;20079;-68
2023/12/26 04:12:14;;;;;;;6.97;1.40;;;;;;;;;;5036956;28;20254;-68
2023/12/26 04:14:39;;;;;;;4.30;1.20;;;;;;;;;;5036423;28;20060;-69
2023/12/26 04:17:04;;;;;;;3.80;1.30;;;;;;;;;;5035993;28;20029;-69
2023/12/26 04:19:30;;;;;;;7.43;1.27;;;;;;;;;;5035071;28;20608;-69
2023/12/26 04:21:55;;;;;;;7.77;1.47;;;;;;;;;;5032089;28;20037;-68
2023/12/26 04:24:20;;;;;;;8.10;1.48;;;;;;;;;;5036524;28;20262;-68
2023/12/26 04:26:46;;;;;;;4.53;1.30;;;;;;;;;;5036951;28;20022;-65
2023/12/26 04:29:11;;;;;;;4.93;1.60;;;;;;;;;;5035967;28;20316;-65
2023/12/26 04:31:36;;;;;;;3.70;1.10;;;;;;;;;;5036313;28;20325;-65
2023/12/26 04:34:01;;;;;;;3.37;1.27;;;;;;;;;;5035994;28;20270;-65
2023/12/26 04:36:26;;;;;;;10.32;1.60;;;;;;;;;;5034568;28;20301;-65
2023/12/26 04:38:52;;;;;;;7.57;1.87;;;;;;;;;;5032887;28;20029;-65
2023/12/26 04:41:17;;;;;;;7.43;1.13;;;;;;;;;;5032601;28;20821;-65
2023/12/26 04:43:42;;;;;;;7.07;1.45;;;;;;;;;;5032972;28;20811;-65
2023/12/26 04:46:08;;;;;;;8.00;1.83;;;;;;;;;;5032415;28;20041;-65
2023/12/26 04:48:34;;;;;;;10.07;2.10;;;;;;;;;;5032799;28;20108;-66
2023/12/26 04:50:59;;;;;;;9.63;1.75;;;;;;;;;;5029954;28;20071;-65
2023/12/26 04:53:24;;;;;;;2.83;1.10;;;;;;;;;;5033523;28;20035;-65
2023/12/26 04:55:50;;;;;;;5.72;1.60;;;;;;;;;;5031216;28;20018;-65
2023/12/26 04:58:15;;;;;;;7.30;1.27;;;;;;;;;;5032580;28;20025;-66
2023/12/26 05:00:40;;;;;;;6.30;1.37;;;;;;;;;;5033354;28;20025;-65
2023/12/26 05:03:06;;;;;;;9.25;1.25;;;;;;;;;;5031907;28;20336;-66
2023/12/26 05:05:31;;;;;;;3.67;1.30;;;;;;;;;;5033117;28;20022;-66
2023/12/26 05:07:56;;;;;;;7.37;2.10;;;;;;;;;;5032692;28;20112;-65
2023/12/26 05:10:21;;;;;;;8.43;1.50;;;;;;;;;;5030184;28;20333;-65
2023/12/26 05:12:47;;;;;;;6.87;1.60;;;;;;;;;;5030626;28;20401;-66
2023/12/26 05:15:12;;;;;;;7.23;1.27;;;;;;;;;;5032787;28;20334;-65
2023/12/26 05:17:37;;;;;;;6.57;1.20;;;;;;;;;;5032032;28;20262;-65
2023/12/26 05:20:03;;;;;;;11.25;1.83;;;;;;;;;;5032026;28;20267;-65
2023/12/26 05:22:28;;;;;;;5.90;1.60;;;;;;;;;;5032283;28;20025;-65
2023/12/26 05:24:53;;;;;;;11.13;1.90;;;;;;;;;;5030607;28;20165;-65
2023/12/26 05:27:18;;;;;;;5.00;1.93;;;;;;;;;;5030045;28;20361;-65
2023/12/26 05:29:44;;;;;;;10.13;1.58;;;;;;;;;;5024829;28;20279;-65
2023/12/26 05:32:09;;;;;;;6.30;1.70;;;;;;;;;;5031121;28;20377;-66
2023/12/26 05:34:34;;;;;;;3.22;1.05;;;;;;;;;;5031868;28;20017;-65
2023/12/26 05:37:00;;;;;;;5.18;1.50;;;;;;;;;;5030578;28;20025;-68
2023/12/26 05:39:25;;;;;;;4.47;1.40;;;;;;;;;;5030644;28;20101;-68
2023/12/26 05:41:50;;;;;;;7.03;1.93;;;;;;;;;;5031535;28;20032;-69
2023/12/26 05:44:15;;;;;;;8.73;1.40;;;;;;;;;;5030831;28;20357;-68
2023/12/26 05:46:42;;;;;;;7.85;1.30;;;;;;;;;;5028119;28;20340;-69
2023/12/26 05:49:08;;;;;;;9.43;1.63;;;;;;;;;;5031305;28;20068;-69
2023/12/26 05:51:34;;;;;;;8.70;1.75;;;;;;;;;;5030365;28;20029;-69
2023/12/26 05:53:59;;;;;;;8.50;1.50;;;;;;;;;;5031091;28;20198;-68
2023/12/26 05:56:24;;;;;;;8.00;1.80;;;;;;;;;;5030925;28;20433;-69
2023/12/26 05:58:49;;;;;;;9.20;2.20;;;;;;;;;;5031116;28;20105;-69
2023/12/26 06:01:15;;;;;;;4.83;1.93;;;;;;;;;;5031524;28;20365;-69
2023/12/26 06:03:40;;;;;;;10.70;1.60;;;;;;;;;;5031493;28;20305;-69
2023/12/26 06:06:08;;;;;;;5.67;1.40;;;;;;;;;;5031051;28;20462;-68
2023/12/26 06:08:33;;;;;;;11.05;1.42;;;;;;;;;;5032227;28;20309;-69
2023/12/26 06:10:59;;;;;;;5.85;1.30;;;;;;;;;;5031685;28;20053;-69
2023/12/26 06:13:24;;;;;;;8.07;1.73;;;;;;;;;;5031373;28;20014;-68
2023/12/26 06:15:49;;;;;;;7.20;1.17;;;;;;;;;;5029641;28;20061;-68
2023/12/26 06:18:15;;;;;;;8.30;1.73;;;;;;;;;;5031423;28;20513;-69
2023/12/26 06:20:40;;;;;;;5.10;1.40;;;;;;;;;;5031321;28;20354;-68
2023/12/26 06:23:05;;;;;;;8.18;2.10;;;;;;;;;;5030638;28;21337;-68
2023/12/26 06:25:30;;;;;;;6.10;1.47;;;;;;;;;;5030825;28;20485;-69
2023/12/26 06:27:56;;;;;;;16.63;2.20;;;;;;;;;;5030635;28;20754;-68
2023/12/26 06:30:21;;;;;;;11.07;1.77;;;;;;;;;;5030878;28;20757;-69
2023/12/26 06:32:46;;;;;;;7.57;1.40;;;;;;;;;;5028858;28;20029;-68
2023/12/26 06:35:11;;;;;;;7.18;1.27;;;;;;;;;;5029430;28;20372;-69
2023/12/26 06:37:36;;;;;;;10.20;2.00;;;;;;;;;;5031886;28;20017;-69
2023/12/26 06:40:02;;;;;;;6.10;1.60;;;;;;;;;;5030881;28;20029;-69
2023/12/26 06:42:27;;;;;;;9.32;2.10;;;;;;;;;;5030103;28;20289;-68
2023/12/26 06:44:52;;;;;;;9.32;2.13;;;;;;;;;;5031289;28;20401;-65
2023/12/26 06:47:18;;;;;;;4.28;1.42;;;;;;;;;;5031213;28;20025;-65
2023/12/26 06:49:44;;;;;;;10.48;1.83;;;;;;;;;;5025923;28;20025;-65
2023/12/26 06:52:11;;;;;;;8.85;1.77;;;;;;;;;;5031041;28;20512;-65
2023/12/26 06:54:36;;;;;;;9.65;1.92;;;;;;;;;;5029607;28;20097;-65
2023/12/26 06:57:07;;;;;;;6.67;1.80;;;;;;;;;;5029408;28;20582;-66
2023/12/26 06:59:32;;;;;;;10.10;1.88;;;;;;;;;;5030155;28;20271;-65
2023/12/26 07:01:57;;;;;;;8.05;1.73;;;;;;;;;;5030223;28;20025;-66
2023/12/26 07:04:22;;;;;;;8.70;1.53;;;;;;;;;;5028858;28;20051;-65
2023/12/26 07:06:48;;;;;;;7.17;1.57;;;;;;;;;;5028924;28;20263;-65
2023/12/26 07:09:13;;;;;;;10.67;2.20;;;;;;;;;;5023441;28;20630;-65
2023/12/26 07:11:38;;;;;;;7.13;1.47;;;;;;;;;;5030845;28;20319;-66
2023/12/26 07:14:03;;;;;;;8.80;1.53;;;;;;;;;;5029986;28;20626;-66
2023/12/26 07:16:30;;;;;;;10.77;2.10;;;;;;;;;;5030103;28;20873;-65
2023/12/26 07:18:56;;;;;;;7.07;1.85;;;;;;;;;;5030364;28;20306;-65
2023/12/26 07:21:21;;;;;;;5.18;1.63;;;;;;;;;;5029952;28;20030;-66
2023/12/26 07:23:47;;;;;;;11.40;1.95;;;;;;;;;;5026981;28;20564;-65
2023/12/26 07:26:12;;;;;;;4.10;1.35;;;;;;;;;;5030849;28;20021;-65
2023/12/26 07:28:37;;;;;;;9.02;1.63;;;;;;;;;;5029423;28;20022;-65
2023/12/26 07:31:03;;;;;;;6.10;1.70;;;;;;;;;;5029127;28;20049;-65
2023/12/26 07:33:28;;;;;;;8.10;2.00;;;;;;;;;;5029843;28;20017;-65
2023/12/26 07:35:57;;;;;;;5.40;1.50;;;;;;;;;;5029358;28;20040;-65
2023/12/26 07:38:22;;;;;;;7.40;1.60;;;;;;;;;;5030676;28;20270;-65
2023/12/26 07:40:48;;;;;;;10.40;1.85;;;;;;;;;;5023508;28;20079;-66
2023/12/26 07:43:13;;;;;;;8.67;1.83;;;;;;;;;;5030178;28;20038;-66
2023/12/26 07:45:38;;;;;;;11.23;1.97;;;;;;;;;;5030381;28;20278;-65
2023/12/26 07:48:04;;;;;;;7.20;1.92;;;;;;;;;;5029430;28;20273;-65
2023/12/26 07:50:29;;;;;;;5.90;2.03;;;;;;;;;;5030392;28;20041;-65
2023/12/26 07:52:54;;;;;;;9.53;1.80;;;;;;;;;;5030250;28;20484;-65
2023/12/26 07:55:19;;;;;;;5.80;1.77;;;;;;;;;;5029470;28;20742;-65
2023/12/26 07:57:44;;;;;;;5.85;1.55;;;;;;;;;;5028346;28;21077;-66
2023/12/26 08:00:10;;;;;;;11.05;2.03;;;;;;;;;;5028153;28;20040;-66
2023/12/26 08:02:35;;;;;;;7.40;2.17;;;;;;;;;;5030709;28;20014;-66
2023/12/26 08:05:01;;;;;;;6.90;2.23;;;;;;;;;;5031528;28;20022;-65
2023/12/26 08:07:26;;;;;;;12.20;1.53;;;;;;;;;;5026366;28;20261;-66
2023/12/26 08:09:51;;;;;;;3.67;1.70;;;;;;;;;;5026631;28;20285;-65
2023/12/26 08:12:16;;;;;;;7.90;1.97;;;;;;;;;;5029006;28;20275;-66
2023/12/26 08:14:41;;;;;;;9.73;1.90;;;;;;;;;;5028406;28;20370;-65
2023/12/26 08:17:07;;;;;;;5.43;2.00;;;;;;;;;;5032004;28;20353;-66
2023/12/26 08:19:33;;;;;;;9.02;2.08;;;;;;;;;;5032378;28;20346;-66
2023/12/26 08:21:58;;;;;;;5.38;1.70;;;;;;;;;;5028091;28;20022;-66
2023/12/26 08:24:23;;;;;;;8.50;2.42;;;;;;;;;;5032276;28;20024;-66
2023/12/26 08:26:53;;;;;;;6.78;1.90;;;;;;;;;;5032753;28;20032;-65
2023/12/26 08:29:18;;;;;;;13.23;2.08;;;;;;;;;;5033211;28;20025;-65
2023/12/26 08:31:43;;;;;;;5.90;1.70;;;;;;;;;;5027767;28;20088;-65
2023/12/26 08:34:09;;;;;;;5.05;1.70;;;;;;;;;;5032635;28;20262;-65
2023/12/26 08:36:34;;;;;;;4.17;1.67;;;;;;;;;;5033086;28;20478;-65
2023/12/26 08:38:59;;;;;;;7.27;1.77;;;;;;;;;;5030803;28;20281;-65
2023/12/26 08:41:24;;;;;;;5.18;1.40;;;;;;;;;;5032450;28;20626;-65
2023/12/26 08:43:50;;;;;;;3.70;1.30;;;;;;;;;;5032726;28;20116;-65
2023/12/26 08:46:16;;;;;;;5.33;1.60;;;;;;;;;;5032426;28;20729;-66
2023/12/26 08:48:41;;;;;;;3.22;1.55;;;;;;;;;;5027284;28;20826;-65
2023/12/26 08:51:06;;;;;;;4.97;1.30;;;;;;;;;;5030630;28;20104;-65
2023/12/26 08:53:32;;;;;;;5.67;1.37;;;;;;;;;;5030878;28;20088;-65
2023/12/26 08:55:57;;;;;;;9.93;1.90;;;;;;;;;;5032573;28;20375;-66
2023/12/26 08:58:25;;;;;;;4.53;1.70;;;;;;;;;;5032381;28;20028;-66
2023/12/26 09:00:51;;;;;;;8.77;2.00;;;;;;;;;;5032196;28;20268;-65
2023/12/26 09:03:16;;;;;;;5.73;1.67;;;;;;;;;;5031555;28;20096;-65
2023/12/26 09:05:41;;;;;;;5.83;1.87;;;;;;;;;;5026698;28;20361;-65
2023/12/26 09:08:06;;;;;;;7.35;1.67;;;;;;;;;;5030850;28;20254;-65
2023/12/26 09:10:32;;;;;;;3.27;1.63;;;;;;;;;;5032151;28;20024;-65
2023/12/26 09:12:57;;;;;;;6.80;1.93;;;;;;;;;;5032366;28;20254;-65
2023/12/26 09:15:22;;;;;;;4.70;1.60;;;;;;;;;;5031290;28;20360;-66
2023/12/26 09:17:47;;;;;;;8.73;2.03;;;;;;;;;;5032331;28;20349;-65
2023/12/26 09:20:13;;;;;;;7.18;1.75;;;;;;;;;;5031091;28;20354;-65
2023/12/26 09:22:38;;;;;;;3.78;1.85;;;;;;;;;;5024236;28;20036;-65
2023/12/26 09:25:04;;;;;;;9.83;1.90;;;;;;;;;;5031967;28;20400;-65
2023/12/26 09:27:29;;;;;;;9.25;2.17;;;;;;;;;;5030029;28;20274;-65
2023/12/26 09:29:55;;;;;;;10.02;1.92;;;;;;;;;;5032094;28;20017;-77
2023/12/26 09:32:20;;;;;;;4.30;1.83;;;;;;;;;;5031805;28;20021;-77
2023/12/26 09:34:45;;;;;;;5.13;1.97;;;;;;;;;;5029667;28;20287;-78
2023/12/26 09:37:10;;;;;;;5.15;1.80;;;;;;;;;;5024337;28;20278;-77
2023/12/26 09:39:36;;;;;;;6.30;2.10;;;;;;;;;;5021523;28;20092;-75
2023/12/26 09:42:02;;;;;;;8.00;2.08;;;;;;;;;;5030817;28;20024;-75
2023/12/26 09:44:27;;;;;;;4.38;1.42;;;;;;;;;;5030353;28;20049;-76
2023/12/26 09:46:53;;;;;;;6.85;1.92;;;;;;;;;;5032141;28;20460;-75
2023/12/26 09:49:18;;;;;;;5.05;1.80;;;;;;;;;;5029812;28;20083;-76
2023/12/26 09:51:44;;;;;;;6.68;1.90;;;;;;;;;;5030259;28;20029;-75
2023/12/26 09:54:10;;;;;;;6.18;1.83;;;;;;;;;;5030713;28;20437;-75
2023/12/26 09:56:38;;;;;;;7.65;1.83;;;;;;;;;;5026077;28;20021;-79
2023/12/26 09:59:03;;;;;;;10.15;2.03;;;;;;;;;;5031496;28;20033;-79
2023/12/26 10:01:28;;;;;;;6.75;1.77;;;;;;;;;;5029820;28;20097;-78
2023/12/26 10:03:56;;;;;;;4.60;1.80;;;;;;;;;;5032630;28;20033;-65
2023/12/26 10:06:22;;;;;;;2.85;1.40;;;;;;;;;;5030204;28;20277;-64
2023/12/26 10:08:47;;;;;;;6.35;1.80;;;;;;;;;;5030769;28;20033;-65
2023/12/26 10:11:15;;;;;;;4.83;1.70;;;;;;;;;;5031338;28;20094;-64
2023/12/26 10:13:45;;;;;;;6.70;1.75;;;;;;;;;;5025918;28;20765;-64
2023/12/26 10:16:11;;;;;;;4.72;1.67;;;;;;;;;;5028295;28;20053;-64
2023/12/26 10:18:37;;;;;;;8.95;2.17;;;;;;;;;;5032249;28;20124;-64
2023/12/26 10:21:02;;;;;;;3.95;1.75;;;;;;;;;;5031327;28;20025;-63
2023/12/26 10:23:28;;;;;;;7.43;2.10;;;;;;;;;;5030258;28;20036;-62
2023/12/26 10:25:53;;;;;;;2.42;1.25;;;;;;;;;;5031848;28;20033;-62
2023/12/26 10:28:18;;;;;;;8.83;1.57;;;;;;;;;;5031180;28;20407;-63
2023/12/26 10:30:44;;;;;;;3.70;1.02;;;;;;;;;;5031525;28;20353;-63
2023/12/26 10:33:09;;;;;;;7.10;2.08;;;;;;;;;;5030755;28;20028;-76
2023/12/26 10:35:34;;;;;;;5.53;1.70;;;;;;;;;;5031592;28;20449;-63
2023/12/26 10:38:00;;;;;;;9.17;1.90;;;;;;;;;;5031438;28;20328;-63
2023/12/26 10:40:26;;;;;;;2.28;1.30;;;;;;;;;;5031396;28;20278;-63
2023/12/26 10:42:51;;;;;;;3.22;1.17;;;;;;;;;;5030081;28;20396;-62
2023/12/26 10:45:20;;;;;;;9.83;2.03;;;;;;;;;;5031049;28;20029;-63
2023/12/26 10:47:47;;;;;;;7.45;1.80;;;;;;;;;;5030544;28;20266;-63
2023/12/26 10:50:14;;;;;;;8.85;1.90;;;;;;;;;;5028713;28;20018;-63
2023/12/26 10:52:40;;;;;;;5.63;1.40;;;;;;;;;;5030880;28;20429;-64
2023/12/26 10:55:07;;;;;;;8.10;1.73;;;;;;;;;;5028979;28;20034;-63
2023/12/26 10:57:33;;;;;;;7.40;1.63;;;;;;;;;;5029942;28;20040;-63
2023/12/26 13:51:24;;;;;;;;;;;;;;;;;;5030445;28;20377;-71
2023/12/26 13:53:49;;;;;;;3.33;2.13;;;;;;;;;;5028830;28;20407;-70
2023/12/26 13:56:14;;;;;;;4.88;2.67;;;;;;;;;;5031048;28;20025;-70
2023/12/26 13:58:40;;;;;;;10.55;3.20;;;;;;;;;;5031369;28;20021;-71
2023/12/26 14:01:05;;;;;;;4.95;2.88;;;;;;;;;;5031162;28;20068;-69
2023/12/26 14:03:31;;;;;;;5.32;2.53;;;;;;;;;;5030448;28;20029;-71
2023/12/26 14:05:56;;;;;;;5.72;2.45;;;;;;;;;;5032474;28;20025;-71
2023/12/26 14:08:22;;;;;;;4.68;2.55;;;;;;;;;;5031258;28;20369;-71
2023/12/26 14:10:47;;;;;;;6.63;2.70;;;;;;;;;;5023153;28;20477;-70
2023/12/26 14:13:12;;;;;;;3.53;2.58;;;;;;;;;;5032220;28;20017;-71
2023/12/26 14:15:38;;;;;;;4.25;2.72;;;;;;;;;;5029010;28;20506;-71
2023/12/26 14:18:03;;;;;;;4.88;2.90;;;;;;;;;;5031013;28;20037;-70
2023/12/26 14:20:29;;;;;;;5.85;2.72;;;;;;;;;;5032059;28;20025;-71
2023/12/26 14:22:54;;;;;;;6.93;3.00;;;;;;;;;;5031165;28;20041;-71
2023/12/26 14:25:19;;;;;;;3.72;2.60;;;;;;;;;;5031114;28;20032;-71
2023/12/26 14:27:45;;;;;;;6.80;2.50;;;;;;;;;;5027253;28;20021;-71
2023/12/26 14:30:10;;;;;;;4.05;2.70;;;;;;;;;;5026200;28;20013;-71
2023/12/26 14:32:35;;;;;;;2.70;2.40;;;;;;;;;;5029241;28;20017;-70
2023/12/26 14:35:01;;;;;;;4.90;2.85;;;;;;;;;;5030954;28;20025;-70
2023/12/26 14:37:26;;;;;;;3.63;2.47;;;;;;;;;;5031547;28;20025;-71
2023/12/26 14:39:52;;;;;;;3.72;2.33;;;;;;;;;;5030210;28;20025;-68
2023/12/26 14:42:17;;;;;;;3.90;2.38;;;;;;;;;;5030785;28;20029;-70
2023/12/26 14:44:42;;;;;;;3.20;2.00;;;;;;;;;;5030946;28;20096;-70
2023/12/26 14:47:07;;;;;;;2.92;1.80;;;;;;;;;;5025859;28;20022;-71
2023/12/26 14:49:33;;;;;;;2.75;2.03;;;;;;;;;;5031324;28;20022;-70
2023/12/26 14:51:58;;;;;;;4.93;2.40;;;;;;;;;;5030951;28;20048;-69
2023/12/26 14:54:23;;;;;;;3.10;2.00;;;;;;;;;;5031229;28;20029;-70
2023/12/26 14:56:49;;;;;;;2.67;1.80;;;;;;;;;;5030270;28;20113;-64
2023/12/26 14:59:14;;;;;;;2.83;1.90;;;;;;;;;;5029754;28;20045;-64
2023/12/26 15:01:39;;;;;;;3.03;2.03;;;;;;;;;;5031002;28;20096;-65
2023/12/26 15:04:05;;;;;;;3.20;1.73;;;;;;;;;;5030561;28;20033;-65
2023/12/26 15:06:31;;;;;;;2.90;1.83;;;;;;;;;;5029699;28;20057;-65
2023/12/26 15:08:56;;;;;;;1.95;1.55;;;;;;;;;;5028839;28;20053;-65
2023/12/26 15:11:21;;;;;;;2.42;1.55;;;;;;;;;;5030515;28;20030;-65
2023/12/26 15:13:46;;;;;;;2.53;1.50;;;;;;;;;;5028143;28;20021;-64
2023/12/26 15:16:18;;;;;;;1.60;1.30;;;;;;;;;;5023155;28;20755;-65
2023/12/26 15:18:43;;;;;;;1.27;1.17;;;;;;;;;;5029499;28;20075;-65
2023/12/26 15:21:09;;;;;;;1.77;1.20;;;;;;;;;;5030890;28;20417;-65
2023/12/26 15:23:34;;;;;;;1.52;1.40;;;;;;;;;;5030843;28;20080;-65
2023/12/26 15:25:59;;;;;;;1.67;1.45;;;;;;;;;;5029220;28;20036;-64
2023/12/26 15:28:24;;;;;;;2.53;1.40;;;;;;;;;;5031663;28;20578;-64
2023/12/26 15:30:50;;;;;;;1.40;1.23;;;;;;;;;;5029951;28;20021;-65
2023/12/26 15:33:16;;;;;;;3.90;1.50;;;;;;;;;;5027850;28;20259;-65
2023/12/26 15:35:44;;;;;;;2.05;1.42;;;;;;;;;;5024071;28;20271;-65
2023/12/26 15:38:09;;;;;;;6.97;1.48;;;;;;;;;;5031003;28;20112;-65
2023/12/26 15:40:35;;;;;;;2.17;1.13;;;;;;;;;;5030186;28;20044;-65
2023/12/26 15:43:00;;;;;;;4.03;1.30;;;;;;;;;;5031316;28;20348;-65
2023/12/26 15:45:25;;;;;;;1.93;1.33;;;;;;;;;;5029903;28;20297;-65
2023/12/26 15:47:54;;;;;;;2.63;1.40;;;;;;;;;;5030253;28;20263;-65
2023/12/26 15:50:19;;;;;;;2.60;1.20;;;;;;;;;;5026592;28;20267;-65
2023/12/26 15:52:45;;;;;;;1.92;1.50;;;;;;;;;;5030568;28;20048;-66
2023/12/26 15:55:10;;;;;;;2.13;1.40;;;;;;;;;;5027925;28;20032;-65
2023/12/26 15:57:35;;;;;;;2.92;1.48;;;;;;;;;;5029321;28;20477;-65
2023/12/26 16:00:00;;;;;;;1.90;1.43;;;;;;;;;;5028117;28;20026;-65
2023/12/26 16:02:26;;;;;;;3.67;1.63;;;;;;;;;;5028974;28;20274;-65
2023/12/26 16:04:55;;;;;;;2.27;1.40;;;;;;;;;;5029147;28;20036;-73
2023/12/26 16:07:20;;;;;;;2.03;1.67;;;;;;;;;;5027607;28;20357;-73
2023/12/26 16:09:45;;;;;;;3.03;2.10;;;;;;;;;;5028750;28;20100;-71
2023/12/26 16:12:11;;;;;;;2.47;1.80;;;;;;;;;;5029671;28;20025;-73
2023/12/26 16:14:36;;;;;;;3.15;2.10;;;;;;;;;;5029845;28;20831;-73
2023/12/26 16:17:01;;;;;;;2.78;1.52;;;;;;;;;;5030912;28;20525;-73
2023/12/26 16:19:26;;;;;;;2.13;1.80;;;;;;;;;;5026237;28;20026;-73
2023/12/26 16:21:52;;;;;;;2.88;1.90;;;;;;;;;;5030346;28;20059;-73
2023/12/26 16:24:17;;;;;;;2.03;1.50;;;;;;;;;;5030607;28;20013;-73
2023/12/26 16:26:43;;;;;;;2.83;1.67;;;;;;;;;;5030687;28;20025;-73
2023/12/26 16:29:10;;;;;;;3.33;1.38;;;;;;;;;;5029808;28;20262;-73
2023/12/26 16:31:35;;;;;;;3.13;1.33;;;;;;;;;;5030437;28;20037;-73
2023/12/26 16:34:01;;;;;;;2.53;1.67;;;;;;;;;;5030592;28;20401;-73
2023/12/26 16:36:26;;;;;;;2.97;1.75;;;;;;;;;;5028489;28;20235;-75
2023/12/26 16:38:51;;;;;;;4.00;2.40;;;;;;;;;;5034689;28;20026;-73
2023/12/26 16:41:16;;;;;;;3.40;2.10;;;;;;;;;;5033559;28;20033;-75
2023/12/26 16:43:42;;;;;;;4.50;2.10;;;;;;;;;;5034070;28;20289;-73
2023/12/26 16:46:08;;;;;;;5.32;2.13;;;;;;;;;;5034450;28;20030;-72
2023/12/26 16:48:34;;;;;;;2.22;1.85;;;;;;;;;;5032927;28;20104;-73
2023/12/26 16:51:02;;;;;;;5.72;1.98;;;;;;;;;;5034011;28;20112;-73
2023/12/26 16:53:27;;;;;;;1.70;1.58;;;;;;;;;;5033782;28;20026;-69
2023/12/26 16:55:54;;;;;;;3.00;1.90;;;;;;;;;;5032382;28;20029;-73
2023/12/26 16:58:19;;;;;;;4.68;1.90;;;;;;;;;;5034281;28;20076;-73
2023/12/26 17:00:44;;;;;;;2.25;1.70;;;;;;;;;;5034063;28;20039;-72
2023/12/26 17:03:09;;;;;;;5.93;1.50;;;;;;;;;;5029705;28;20052;-72
2023/12/26 17:05:35;;;;;;;3.47;1.77;;;;;;;;;;5032548;28;20038;-73
2023/12/26 17:08:00;;;;;;;2.83;1.55;;;;;;;;;;5033050;28;20021;-73
2023/12/26 17:10:25;;;;;;;3.03;1.90;;;;;;;;;;5033041;28;20362;-73
2023/12/26 17:12:50;;;;;;;2.85;1.70;;;;;;;;;;5033014;28;20038;-73
2023/12/26 17:15:16;;;;;;;1.97;1.60;;;;;;;;;;5033664;28;20053;-64
2023/12/26 17:17:41;;;;;;;4.32;1.83;;;;;;;;;;5033412;28;20266;-65
2023/12/26 17:20:07;;;;;;;3.13;1.88;;;;;;;;;;5033907;28;20025;-64
2023/12/26 17:22:32;;;;;;;2.92;1.55;;;;;;;;;;5032839;28;20040;-64